Stornoway — WDC7908 — position and weather

sailwx.info

Track history (hours):
 
Tides and Currents Weather Stations Pressure Air Temp Water Temp Dewpoint Dewpoint Depression Visibility Wind Speed Wind Dir Waves Ship Positions

Stornoway

Owner: Matthews, William, Bainbridge Island, WA. More information available from US FCC via Universal Licensing System and Coast Guard Vessel Documentation Center.

Last reported at 2014-Dec-18 22:29 UTC. Time now 2014-Dec-19 08:00 UTC.
Position N 47°20' W 122°35'.

Length 13 m.

Type: Pleasure craft. MMSI: 367078810.

Date/timePositionNaut miles runAvg speedWind from/ knotsBaromVisibWave heightAir tempDewpointWater temp
2014-Dec-18 22:29N 47°20' W 122°35'0 0.0
2014-Dec-18 21:23N 47°20' W 122°35'0 0.0
2014-Dec-18 20:23N 47°20' W 122°35'0 0.0
2014-Dec-18 19:23N 47°20' W 122°35'3 3.8
2014-Dec-18 18:32N 47°18' W 122°31'0 0.0
2014-Dec-18 17:32N 47°18' W 122°31'0 0.0
2014-Dec-18 16:29N 47°18' W 122°31'0 0.0
2014-Dec-18 15:29N 47°18' W 122°31'0 0.0
2014-Dec-18 14:32N 47°18' W 122°31'0 0.0
2014-Dec-18 13:32N 47°18' W 122°31'0 0.0
2014-Dec-18 12:30N 47°18' W 122°31'0 0.0
2014-Dec-18 11:33N 47°18' W 122°31'0 0.0
2014-Dec-18 10:33N 47°18' W 122°31'0 0.0
2014-Dec-18 09:33N 47°18' W 122°31'0 0.0
2014-Dec-18 08:30N 47°18' W 122°31'0 0.0
2014-Dec-18 07:33N 47°18' W 122°31'0 0.0
2014-Dec-18 06:33N 47°18' W 122°31'0 0.0
2014-Dec-18 05:33N 47°18' W 122°31'0 0.0
2014-Dec-18 04:33N 47°18' W 122°31'0 0.0
2014-Dec-18 03:30N 47°18' W 122°31'0 0.0
2014-Dec-18 02:33N 47°18' W 122°31'0 0.0
2014-Dec-18 01:30N 47°18' W 122°31'0 0.0
2014-Dec-18 00:33N 47°18' W 122°31'4 4.1
2014-Dec-17 23:33N 47°16' W 122°26'1 0.8
2014-Dec-17 22:22N 47°15' W 122°26'0 0.0
2014-Dec-17 21:25N 47°15' W 122°26'0 0.0
2014-Dec-17 20:31N 47°15' W 122°26'0 0.0
2014-Dec-17 19:28N 47°15' W 122°26'0 0.0
2014-Dec-17 18:25N 47°15' W 122°26'0 0.0
2014-Dec-17 17:25N 47°15' W 122°26'0 0.0
2014-Dec-17 16:31N 47°15' W 122°26'0 0.0
2014-Dec-17 15:28N 47°15' W 122°26'0 0.0
2014-Dec-17 14:25N 47°15' W 122°26'0 0.0
2014-Dec-17 13:31N 47°15' W 122°26'0 0.0
2014-Dec-17 12:07N 47°15' W 122°26'0 0.0
2014-Dec-17 11:31N 47°15' W 122°26'0 0.0
2014-Dec-17 10:28N 47°15' W 122°26'0 0.0
2014-Dec-17 09:28N 47°15' W 122°26'0 0.0
2014-Dec-17 08:16N 47°15' W 122°26'0 0.0
2014-Dec-17 07:28N 47°15' W 122°26'0 0.0
2014-Dec-17 06:28N 47°15' W 122°26'0 0.0
2014-Dec-17 05:13N 47°15' W 122°26'0 0.1
2014-Dec-17 04:31N 47°15' W 122°26'0 0.0
2014-Dec-17 03:25N 47°15' W 122°26'0 0.0
2014-Dec-17 02:22N 47°15' W 122°26'0 0.0
2014-Dec-17 01:19N 47°15' W 122°26'0 0.0
2014-Dec-17 00:31N 47°15' W 122°26'0 0.0
2014-Dec-16 23:31N 47°15' W 122°26'0 0.0
2014-Dec-16 22:31N 47°15' W 122°26'0 0.0
2014-Dec-16 21:28N 47°15' W 122°26'5 5.1
2014-Dec-16 20:31N 47°18' W 122°31'0 0.0
2014-Dec-16 19:28N 47°18' W 122°31'0 0.0
2014-Dec-16 18:25N 47°18' W 122°31'0 0.0
2014-Dec-16 17:31N 47°18' W 122°31'0 0.0
2014-Dec-16 16:31N 47°18' W 122°31'0 0.0
2014-Dec-16 15:31N 47°18' W 122°31'0 0.0
2014-Dec-16 14:31N 47°18' W 122°31'0 0.0
2014-Dec-16 13:31N 47°18' W 122°31'0 0.0
2014-Dec-16 12:31N 47°18' W 122°31'0 0.0
2014-Dec-16 11:31N 47°18' W 122°31'0 0.0
2014-Dec-16 10:31N 47°18' W 122°31'0 0.0
2014-Dec-16 09:31N 47°18' W 122°31'0 0.0
2014-Dec-16 08:31N 47°18' W 122°31'0 0.0
2014-Dec-16 07:31N 47°18' W 122°31'0 0.0
2014-Dec-16 06:31N 47°18' W 122°31'0 0.0
2014-Dec-16 05:31N 47°18' W 122°31'0 0.0
2014-Dec-16 04:22N 47°18' W 122°31'0 0.0
2014-Dec-16 03:31N 47°18' W 122°31'0 0.0
2014-Dec-16 01:07N 47°18' W 122°31'0 0.0
2014-Dec-16 00:07N 47°18' W 122°31'0 0.0
2014-Dec-15 23:19N 47°18' W 122°31'0 0.0
2014-Dec-15 22:31N 47°18' W 122°31'0 0.0
2014-Dec-15 21:31N 47°18' W 122°31'2 1.6
2014-Dec-15 20:33N 47°20' W 122°32'9 8.6
2014-Dec-15 19:33N 47°28' W 122°31'4 4.1
2014-Dec-15 18:31N 47°33' W 122°29'0 0.0
2014-Dec-15 17:31N 47°33' W 122°29'0 0.0
2014-Dec-15 16:31N 47°33' W 122°29'0 0.0
2014-Dec-15 15:31N 47°33' W 122°29'0 0.0
2014-Dec-15 14:31N 47°33' W 122°29'0 0.0
2014-Dec-15 13:31N 47°33' W 122°29'0 0.0
2014-Dec-15 12:31N 47°33' W 122°29'0 0.0
2014-Dec-15 11:31N 47°33' W 122°29'0 0.0
2014-Dec-15 10:31N 47°33' W 122°29'0 0.0
2014-Dec-15 09:31N 47°33' W 122°29'0 0.0
2014-Dec-15 08:31N 47°33' W 122°29'0 0.0
2014-Dec-15 07:28N 47°33' W 122°29'0 0.0
2014-Dec-15 06:31N 47°33' W 122°29'0 0.0
2014-Dec-15 05:31N 47°33' W 122°29'0 0.0
2014-Dec-15 04:31N 47°33' W 122°29'0 0.0
2014-Dec-15 03:31N 47°33' W 122°29'0 0.0
2014-Dec-15 02:31N 47°33' W 122°29'0 0.0
2014-Dec-15 01:31N 47°33' W 122°29'0 0.0
2014-Dec-15 00:31N 47°33' W 122°29'0 0.0
2014-Dec-14 23:31N 47°33' W 122°29'0 0.0
2014-Dec-14 22:30N 47°33' W 122°29'8 8.3
2014-Dec-14 21:33N 47°40' W 122°30'  
Track history (hours):
 
Tides and Currents Weather Stations Pressure Air Temp Water Temp Dewpoint Dewpoint Depression Visibility Wind Speed Wind Dir Waves Ship Positions

Stornoway

Owner: Matthews, William, Bainbridge Island, WA. More information available from US FCC via Universal Licensing System and Coast Guard Vessel Documentation Center.

Last reported at 2014-Dec-18 22:29 UTC. Time now 2014-Dec-19 08:00 UTC.
Position N 47°20' W 122°35'.

Length 13 m.

Type: Pleasure craft. MMSI: 367078810.

Date/timePositionNaut miles runAvg speedWind from/ knotsBaromVisibWave heightAir tempDewpointWater temp
2014-Dec-18 22:29N 47°20' W 122°35'0 0.0
2014-Dec-18 21:23N 47°20' W 122°35'0 0.0
2014-Dec-18 20:23N 47°20' W 122°35'0 0.0
2014-Dec-18 19:23N 47°20' W 122°35'3 3.8
2014-Dec-18 18:32N 47°18' W 122°31'0 0.0
2014-Dec-18 17:32N 47°18' W 122°31'0 0.0
2014-Dec-18 16:29N 47°18' W 122°31'0 0.0
2014-Dec-18 15:29N 47°18' W 122°31'0 0.0
2014-Dec-18 14:32N 47°18' W 122°31'0 0.0
2014-Dec-18 13:32N 47°18' W 122°31'0 0.0
2014-Dec-18 12:30N 47°18' W 122°31'0 0.0
2014-Dec-18 11:33N 47°18' W 122°31'0 0.0
2014-Dec-18 10:33N 47°18' W 122°31'0 0.0
2014-Dec-18 09:33N 47°18' W 122°31'0 0.0
2014-Dec-18 08:30N 47°18' W 122°31'0 0.0
2014-Dec-18 07:33N 47°18' W 122°31'0 0.0
2014-Dec-18 06:33N 47°18' W 122°31'0 0.0
2014-Dec-18 05:33N 47°18' W 122°31'0 0.0
2014-Dec-18 04:33N 47°18' W 122°31'0 0.0
2014-Dec-18 03:30N 47°18' W 122°31'0 0.0
2014-Dec-18 02:33N 47°18' W 122°31'0 0.0
2014-Dec-18 01:30N 47°18' W 122°31'0 0.0
2014-Dec-18 00:33N 47°18' W 122°31'4 4.1
2014-Dec-17 23:33N 47°16' W 122°26'1 0.8
2014-Dec-17 22:22N 47°15' W 122°26'0 0.0
2014-Dec-17 21:25N 47°15' W 122°26'0 0.0
2014-Dec-17 20:31N 47°15' W 122°26'0 0.0
2014-Dec-17 19:28N 47°15' W 122°26'0 0.0
2014-Dec-17 18:25N 47°15' W 122°26'0 0.0
2014-Dec-17 17:25N 47°15' W 122°26'0 0.0
2014-Dec-17 16:31N 47°15' W 122°26'0 0.0
2014-Dec-17 15:28N 47°15' W 122°26'0 0.0
2014-Dec-17 14:25N 47°15' W 122°26'0 0.0
2014-Dec-17 13:31N 47°15' W 122°26'0 0.0
2014-Dec-17 12:07N 47°15' W 122°26'0 0.0
2014-Dec-17 11:31N 47°15' W 122°26'0 0.0
2014-Dec-17 10:28N 47°15' W 122°26'0 0.0
2014-Dec-17 09:28N 47°15' W 122°26'0 0.0
2014-Dec-17 08:16N 47°15' W 122°26'0 0.0
2014-Dec-17 07:28N 47°15' W 122°26'0 0.0
2014-Dec-17 06:28N 47°15' W 122°26'0 0.0
2014-Dec-17 05:13N 47°15' W 122°26'0 0.1
2014-Dec-17 04:31N 47°15' W 122°26'0 0.0
2014-Dec-17 03:25N 47°15' W 122°26'0 0.0
2014-Dec-17 02:22N 47°15' W 122°26'0 0.0
2014-Dec-17 01:19N 47°15' W 122°26'0 0.0
2014-Dec-17 00:31N 47°15' W 122°26'0 0.0
2014-Dec-16 23:31N 47°15' W 122°26'0 0.0
2014-Dec-16 22:31N 47°15' W 122°26'0 0.0
2014-Dec-16 21:28N 47°15' W 122°26'5 5.1
2014-Dec-16 20:31N 47°18' W 122°31'0 0.0
2014-Dec-16 19:28N 47°18' W 122°31'0 0.0
2014-Dec-16 18:25N 47°18' W 122°31'0 0.0
2014-Dec-16 17:31N 47°18' W 122°31'0 0.0
2014-Dec-16 16:31N 47°18' W 122°31'0 0.0
2014-Dec-16 15:31N 47°18' W 122°31'0 0.0
2014-Dec-16 14:31N 47°18' W 122°31'0 0.0
2014-Dec-16 13:31N 47°18' W 122°31'0 0.0
2014-Dec-16 12:31N 47°18' W 122°31'0 0.0
2014-Dec-16 11:31N 47°18' W 122°31'0 0.0
2014-Dec-16 10:31N 47°18' W 122°31'0 0.0
2014-Dec-16 09:31N 47°18' W 122°31'0 0.0
2014-Dec-16 08:31N 47°18' W 122°31'0 0.0
2014-Dec-16 07:31N 47°18' W 122°31'0 0.0
2014-Dec-16 06:31N 47°18' W 122°31'0 0.0
2014-Dec-16 05:31N 47°18' W 122°31'0 0.0
2014-Dec-16 04:22N 47°18' W 122°31'0 0.0
2014-Dec-16 03:31N 47°18' W 122°31'0 0.0
2014-Dec-16 01:07N 47°18' W 122°31'0 0.0
2014-Dec-16 00:07N 47°18' W 122°31'0 0.0
2014-Dec-15 23:19N 47°18' W 122°31'0 0.0
2014-Dec-15 22:31N 47°18' W 122°31'0 0.0
2014-Dec-15 21:31N 47°18' W 122°31'2 1.6
2014-Dec-15 20:33N 47°20' W 122°32'9 8.6
2014-Dec-15 19:33N 47°28' W 122°31'4 4.1
2014-Dec-15 18:31N 47°33' W 122°29'0 0.0
2014-Dec-15 17:31N 47°33' W 122°29'0 0.0
2014-Dec-15 16:31N 47°33' W 122°29'0 0.0
2014-Dec-15 15:31N 47°33' W 122°29'0 0.0
2014-Dec-15 14:31N 47°33' W 122°29'0 0.0
2014-Dec-15 13:31N 47°33' W 122°29'0 0.0
2014-Dec-15 12:31N 47°33' W 122°29'0 0.0
2014-Dec-15 11:31N 47°33' W 122°29'0 0.0
2014-Dec-15 10:31N 47°33' W 122°29'0 0.0
2014-Dec-15 09:31N 47°33' W 122°29'0 0.0
2014-Dec-15 08:31N 47°33' W 122°29'0 0.0
2014-Dec-15 07:28N 47°33' W 122°29'0 0.0
2014-Dec-15 06:31N 47°33' W 122°29'0 0.0
2014-Dec-15 05:31N 47°33' W 122°29'0 0.0
2014-Dec-15 04:31N 47°33' W 122°29'0 0.0
2014-Dec-15 03:31N 47°33' W 122°29'0 0.0
2014-Dec-15 02:31N 47°33' W 122°29'0 0.0
2014-Dec-15 01:31N 47°33' W 122°29'0 0.0
2014-Dec-15 00:31N 47°33' W 122°29'0 0.0
2014-Dec-14 23:31N 47°33' W 122°29'0 0.0
2014-Dec-14 22:30N 47°33' W 122°29'8 8.3
2014-Dec-14 21:33N 47°40' W 122°30'  

Dump ship's entire track history